Wetterdaten: Dienstag, 08.05.2007
Datum Zeit Temp. A. Feuchte A. Luftdruck Regen Wind Richtung Richtung Sonnenschein UV Solar Windben
08.05.2007 00:00 13,1 C 90 % 1004,8 hPa 1,5 mm 4,3 km/h (1 Bft) N 350 0 min 0 UV-I 0 W/m 17,7 km/h (3 Bft)
08.05.2007 00:10 12,9 C 91 % 1004,8 hPa 0,8 mm 3,2 km/h (1 Bft) NW 315 0 min 0 UV-I 0 W/m 11,3 km/h (2 Bft)
08.05.2007 00:20 12,7 C 92 % 1004,8 hPa 1,5 mm 3,2 km/h (1 Bft) W-SW 247 0 min 0 UV-I 0 W/m 9,7 km/h (2 Bft)
08.05.2007 00:30 12,6 C 91 % 1005,0 hPa 0,3 mm 3,2 km/h (1 Bft) W-NW 292 0 min 0 UV-I 0 W/m 9,7 km/h (2 Bft)
08.05.2007 00:40 12,5 C 91 % 1005,0 hPa 0,0 mm 1,6 km/h (1 Bft) NW 315 0 min 0 UV-I 0 W/m 8,0 km/h (2 Bft)
08.05.2007 00:50 12,4 C 91 % 1005,1 hPa 0,0 mm 1,6 km/h (1 Bft) W-SW 247 0 min 0 UV-I 0 W/m 8,0 km/h (2 Bft)
08.05.2007 01:00 12,4 C 91 % 1005,1 hPa 0,0 mm 3,2 km/h (1 Bft) W 270 0 min 0 UV-I 0 W/m 8,0 km/h (2 Bft)
08.05.2007 01:10 12,2 C 89 % 1005,4 hPa 0,0 mm 4,8 km/h (1 Bft) W-NW 292 0 min 0 UV-I 0 W/m 17,7 km/h (3 Bft)
08.05.2007 01:20 12,0 C 89 % 1005,6 hPa 0,0 mm 3,2 km/h (1 Bft) W 270 0 min 0 UV-I 0 W/m 14,5 km/h (3 Bft)
08.05.2007 01:30 11,8 C 89 % 1005,6 hPa 0,0 mm 3,2 km/h (1 Bft) W 270 0 min 0 UV-I 0 W/m 9,7 km/h (2 Bft)
08.05.2007 01:40 11,7 C 89 % 1005,8 hPa 0,0 mm 3,2 km/h (1 Bft) W 270 0 min 0 UV-I 0 W/m 9,7 km/h (2 Bft)
08.05.2007 01:50 11,5 C 89 % 1005,9 hPa 0,0 mm 3,2 km/h (1 Bft) W-SW 247 0 min 0 UV-I 0 W/m 9,7 km/h (2 Bft)
08.05.2007 02:00 11,4 C 90 % 1006,1 hPa 0,0 mm 1,6 km/h (1 Bft) W 270 0 min 0 UV-I 0 W/m 6,4 km/h (2 Bft)
08.05.2007 02:10 11,4 C 90 % 1006,1 hPa 0,0 mm 1,6 km/h (1 Bft) W-SW 247 0 min 0 UV-I 0 W/m 8,0 km/h (2 Bft)
08.05.2007 02:20 11,3 C 90 % 1006,0 hPa 0,0 mm 1,6 km/h (1 Bft) W-SW 247 0 min 0 UV-I 0 W/m 6,4 km/h (2 Bft)
08.05.2007 02:30 11,3 C 90 % 1006,1 hPa 0,0 mm 1,6 km/h (1 Bft) W-SW 247 0 min 0 UV-I 0 W/m 4,8 km/h (1 Bft)
08.05.2007 02:40 11,3 C 90 % 1006,2 hPa 0,0 mm 1,6 km/h (1 Bft) W-SW 247 0 min 0 UV-I 0 W/m 4,8 km/h (1 Bft)
08.05.2007 02:50 11,3 C 90 % 1006,3 hPa 0,0 mm 1,6 km/h (1 Bft) W 270 0 min 0 UV-I 0 W/m 6,4 km/h (2 Bft)
08.05.2007 03:00 11,3 C 89 % 1006,2 hPa 0,0 mm 1,6 km/h (1 Bft) W-SW 247 0 min 0 UV-I 0 W/m 4,8 km/h (1 Bft)
08.05.2007 03:10 11,3 C 90 % 1006,3 hPa 0,0 mm 1,6 km/h (1 Bft) W 270 0 min 0 UV-I 0 W/m 6,4 km/h (2 Bft)
08.05.2007 03:20 11,3 C 89 % 1006,3 hPa 0,0 mm 1,6 km/h (1 Bft) W 270 0 min 0 UV-I 0 W/m 8,0 km/h (2 Bft)
08.05.2007 03:30 11,3 C 89 % 1006,2 hPa 0,0 mm 1,6 km/h (1 Bft) W 270 0 min 0 UV-I 0 W/m 8,0 km/h (2 Bft)
08.05.2007 03:40 11,3 C 89 % 1006,2 hPa 0,0 mm 1,6 km/h (1 Bft) W 270 0 min 0 UV-I 0 W/m 6,4 km/h (2 Bft)
08.05.2007 03:50 11,2 C 89 % 1006,3 hPa 0,0 mm 1,6 km/h (1 Bft) W-SW 247 0 min 0 UV-I 0 W/m 8,0 km/h (2 Bft)
08.05.2007 04:00 11,2 C 89 % 1006,4 hPa 0,0 mm 1,6 km/h (1 Bft) W-NW 292 0 min 0 UV-I 0 W/m 9,7 km/h (2 Bft)
08.05.2007 04:10 11,2 C 90 % 1006,2 hPa 0,0 mm 1,6 km/h (1 Bft) W 270 0 min 0 UV-I 0 W/m 4,8 km/h (1 Bft)
08.05.2007 04:20 11,2 C 90 % 1006,2 hPa 0,0 mm 1,6 km/h (1 Bft) W-SW 247 0 min 0 UV-I 0 W/m 4,8 km/h (1 Bft)
08.05.2007 04:30 11,2 C 90 % 1006,2 hPa 0,0 mm 1,6 km/h (1 Bft) W-SW 247 0 min 0 UV-I 0 W/m 6,4 km/h (2 Bft)
08.05.2007 04:40 11,2 C 90 % 1006,2 hPa 0,0 mm 1,6 km/h (1 Bft) W-SW 247 0 min 0 UV-I 0 W/m 4,8 km/h (1 Bft)
08.05.2007 04:50 11,2 C 91 % 1006,7 hPa 1,0 mm 1,6 km/h (1 Bft) W-SW 247 0 min 0 UV-I 0 W/m 8,0 km/h (2 Bft)
08.05.2007 05:00 11,1 C 88 % 1007,3 hPa 5,6 mm 6,4 km/h (2 Bft) SW 225 0 min 0 UV-I 0 W/m 24,1 km/h (4 Bft)
08.05.2007 05:10 10,4 C 87 % 1007,4 hPa 2,8 mm 6,4 km/h (2 Bft) W-SW 247 0 min 0 UV-I 0 W/m 20,9 km/h (4 Bft)
08.05.2007 05:20 9,7 C 89 % 1007,4 hPa 0,8 mm 4,8 km/h (1 Bft) W-SW 247 0 min 0 UV-I 0 W/m 16,1 km/h (3 Bft)
08.05.2007 05:30 9,5 C 90 % 1007,2 hPa 0,5 mm 3,2 km/h (1 Bft) W-SW 247 0 min 0 UV-I 0 W/m 14,5 km/h (3 Bft)
08.05.2007 05:40 9,3 C 91 % 1007,1 hPa 0,3 mm 1,6 km/h (1 Bft) W 270 0 min 0 UV-I 0 W/m 6,4 km/h (2 Bft)
08.05.2007 05:50 9,1 C 91 % 1007,1 hPa 0,3 mm 1,6 km/h (1 Bft) W-SW 247 0 min 0 UV-I 0 W/m 6,4 km/h (2 Bft)
08.05.2007 06:00 8,9 C 92 % 1007,2 hPa 0,0 mm 1,6 km/h (1 Bft) W-SW 247 0 min 0 UV-I 5 W/m 8,0 km/h (2 Bft)
08.05.2007 06:10 8,9 C 92 % 1007,2 hPa 0,0 mm 3,2 km/h (1 Bft) SW 225 0 min 0 UV-I 7 W/m 9,7 km/h (2 Bft)
08.05.2007 06:20 9,0 C 96 % 1007,3 hPa 0,0 mm 3,2 km/h (1 Bft) W-SW 247 0 min 0 UV-I 11 W/m 8,0 km/h (2 Bft)
08.05.2007 06:30 9,0 C 92 % 1007,5 hPa 0,0 mm 3,2 km/h (1 Bft) W-SW 247 0 min 0 UV-I 23 W/m 9,7 km/h (2 Bft)
08.05.2007 06:40 9,1 C 92 % 1007,7 hPa 0,0 mm 3,2 km/h (1 Bft) W-SW 247 0 min 0 UV-I 18 W/m 9,7 km/h (2 Bft)
08.05.2007 06:50 9,4 C 92 % 1007,8 hPa 0,0 mm 4,8 km/h (1 Bft) W-SW 247 0 min 0 UV-I 23 W/m 16,1 km/h (3 Bft)
08.05.2007 07:00 9,6 C 91 % 1007,7 hPa 0,0 mm 4,8 km/h (1 Bft) W-SW 247 0 min 0 UV-I 32 W/m 16,1 km/h (3 Bft)
08.05.2007 07:10 9,9 C 91 % 1007,9 hPa 0,0 mm 4,8 km/h (1 Bft) W-SW 247 0 min 0 UV-I 63 W/m 12,9 km/h (3 Bft)
08.05.2007 07:20 10,1 C 91 % 1008,1 hPa 0,0 mm 4,8 km/h (1 Bft) W-SW 247 0 min 0 UV-I 104 W/m 11,3 km/h (2 Bft)
08.05.2007 07:30 10,3 C 90 % 1008,0 hPa 0,0 mm 4,8 km/h (1 Bft) W-SW 247 10 min 0 UV-I 163 W/m 14,5 km/h (3 Bft)
08.05.2007 07:40 10,5 C 90 % 1008,2 hPa 0,0 mm 4,8 km/h (1 Bft) SW 225 10 min 0 UV-I 151 W/m 16,1 km/h (3 Bft)
08.05.2007 07:50 10,7 C 90 % 1008,2 hPa 0,0 mm 6,4 km/h (2 Bft) W-SW 247 0 min 0 UV-I 109 W/m 16,1 km/h (3 Bft)
08.05.2007 08:00 10,8 C 89 % 1008,3 hPa 0,0 mm 6,4 km/h (2 Bft) W-SW 247 0 min 1 UV-I 104 W/m 17,7 km/h (3 Bft)
08.05.2007 08:10 11,0 C 89 % 1008,4 hPa 0,0 mm 4,8 km/h (1 Bft) W-SW 247 0 min 1 UV-I 178 W/m 16,1 km/h (3 Bft)
08.05.2007 08:20 11,2 C 88 % 1008,3 hPa 0,0 mm 4,8 km/h (1 Bft) SW 225 0 min 1 UV-I 149 W/m 14,5 km/h (3 Bft)
08.05.2007 08:30 11,4 C 87 % 1008,4 hPa 0,0 mm 4,8 km/h (1 Bft) W-SW 247 10 min 1 UV-I 339 W/m 14,5 km/h (3 Bft)
08.05.2007 08:40 11,6 C 86 % 1008,5 hPa 0,0 mm 4,8 km/h (1 Bft) W-SW 247 0 min 1 UV-I 176 W/m 16,1 km/h (3 Bft)
08.05.2007 08:50 11,7 C 83 % 1008,6 hPa 0,0 mm 6,4 km/h (2 Bft) W-SW 247 0 min 1 UV-I 188 W/m 17,7 km/h (3 Bft)
08.05.2007 09:00 11,8 C 82 % 1008,6 hPa 0,0 mm 4,8 km/h (1 Bft) W-SW 247 10 min 1 UV-I 420 W/m 19,3 km/h (3 Bft)
08.05.2007 09:10 12,1 C 79 % 1008,7 hPa 0,0 mm 6,4 km/h (2 Bft) W-SW 247 10 min 2 UV-I 471 W/m 14,5 km/h (3 Bft)
08.05.2007 09:20 12,3 C 80 % 1008,8 hPa 0,0 mm 6,4 km/h (2 Bft) W-SW 247 10 min 2 UV-I 297 W/m 16,1 km/h (3 Bft)
08.05.2007 09:30 12,4 C 77 % 1008,7 hPa 0,0 mm 6,4 km/h (2 Bft) W-SW 247 10 min 2 UV-I 366 W/m 16,1 km/h (3 Bft)
08.05.2007 09:40 12,2 C 77 % 1008,7 hPa 0,0 mm 4,8 km/h (1 Bft) W 270 10 min 1 UV-I 329 W/m 16,1 km/h (3 Bft)
08.05.2007 09:50 12,3 C 77 % 1008,7 hPa 0,0 mm 4,8 km/h (1 Bft) W-SW 247 0 min 1 UV-I 272 W/m 12,9 km/h (3 Bft)
08.05.2007 10:00 12,2 C 79 % 1008,7 hPa 0,0 mm 3,2 km/h (1 Bft) W 270 0 min 1 UV-I 146 W/m 8,0 km/h (2 Bft)
08.05.2007 10:10 12,0 C 80 % 1008,7 hPa 0,0 mm 3,2 km/h (1 Bft) W-SW 247 0 min 1 UV-I 113 W/m 9,7 km/h (2 Bft)
08.05.2007 10:20 11,9 C 79 % 1008,8 hPa 0,0 mm 3,2 km/h (1 Bft) W-SW 247 0 min 0 UV-I 63 W/m 11,3 km/h (2 Bft)
08.05.2007 10:30 11,8 C 82 % 1009,0 hPa 0,0 mm 8,0 km/h (2 Bft) W-SW 247 0 min 1 UV-I 153 W/m 20,9 km/h (4 Bft)
08.05.2007 10:40 11,1 C 81 % 1009,0 hPa 0,0 mm 8,0 km/h (2 Bft) SW 225 0 min 1 UV-I 229 W/m 20,9 km/h (4 Bft)
08.05.2007 10:50 11,0 C 79 % 1008,9 hPa 0,0 mm 4,8 km/h (1 Bft) SW 225 0 min 2 UV-I 325 W/m 19,3 km/h (3 Bft)
08.05.2007 11:00 11,6 C 78 % 1008,9 hPa 0,0 mm 4,8 km/h (1 Bft) SW 225 10 min 3 UV-I 476 W/m 17,7 km/h (3 Bft)
08.05.2007 11:10 12,1 C 76 % 1008,8 hPa 0,0 mm 6,4 km/h (2 Bft) W-SW 247 0 min 2 UV-I 285 W/m 22,5 km/h (4 Bft)
08.05.2007 11:20 12,2 C 79 % 1008,8 hPa 0,0 mm 8,0 km/h (2 Bft) W-SW 247 0 min 2 UV-I 246 W/m 20,9 km/h (4 Bft)
08.05.2007 11:30 12,2 C 79 % 1008,9 hPa 0,0 mm 6,4 km/h (2 Bft) SW 225 0 min 1 UV-I 220 W/m 14,5 km/h (3 Bft)
08.05.2007 11:40 12,2 C 80 % 1008,8 hPa 0,0 mm 4,8 km/h (1 Bft) W-SW 247 0 min 1 UV-I 190 W/m 12,9 km/h (3 Bft)
08.05.2007 11:50 12,2 C 80 % 1008,7 hPa 0,0 mm 4,8 km/h (1 Bft) W-SW 247 0 min 2 UV-I 339 W/m 12,9 km/h (3 Bft)
08.05.2007 12:00 12,8 C 77 % 1008,4 hPa 0,0 mm 4,8 km/h (1 Bft) SW 225 10 min 4 UV-I 601 W/m 22,5 km/h (4 Bft)
08.05.2007 12:10 13,4 C 71 % 1008,5 hPa 0,0 mm 6,4 km/h (2 Bft) W-SW 247 0 min 2 UV-I 381 W/m 20,9 km/h (4 Bft)
08.05.2007 12:20 13,6 C 70 % 1008,3 hPa 0,0 mm 6,4 km/h (2 Bft) W-SW 247 0 min 3 UV-I 367 W/m 16,1 km/h (3 Bft)
08.05.2007 12:30 13,3 C 70 % 1008,5 hPa 0,0 mm 8,0 km/h (2 Bft) W-SW 247 10 min 3 UV-I 478 W/m 27,4 km/h (4 Bft)
08.05.2007 12:40 12,9 C 70 % 1008,3 hPa 0,0 mm 8,0 km/h (2 Bft) SW 225 10 min 4 UV-I 657 W/m 17,7 km/h (3 Bft)
08.05.2007 12:50 13,7 C 69 % 1008,1 hPa 0,0 mm 6,4 km/h (2 Bft) SW 225 10 min 4 UV-I 679 W/m 20,9 km/h (4 Bft)
08.05.2007 13:00 14,2 C 69 % 1008,0 hPa 0,0 mm 8,0 km/h (2 Bft) SW 225 10 min 4 UV-I 686 W/m 22,5 km/h (4 Bft)
08.05.2007 13:10 14,7 C 68 % 1007,8 hPa 0,0 mm 6,4 km/h (2 Bft) SW 225 10 min 4 UV-I 645 W/m 19,3 km/h (3 Bft)
08.05.2007 13:20 14,7 C 64 % 1007,8 hPa 0,0 mm 8,0 km/h (2 Bft) SW 225 10 min 3 UV-I 499 W/m 17,7 km/h (3 Bft)
08.05.2007 13:30 14,2 C 71 % 1008,1 hPa 0,0 mm 12,9 km/h (3 Bft) W-SW 247 0 min 2 UV-I 290 W/m 33,8 km/h (5 Bft)
08.05.2007 13:40 12,9 C 76 % 1008,1 hPa 0,3 mm 8,0 km/h (2 Bft) W-SW 247 0 min 3 UV-I 420 W/m 22,5 km/h (4 Bft)
08.05.2007 13:50 13,0 C 77 % 1008,0 hPa 0,0 mm 6,4 km/h (2 Bft) SW 225 0 min 2 UV-I 373 W/m 22,5 km/h (4 Bft)
08.05.2007 14:00 13,2 C 74 % 1008,0 hPa 0,0 mm 6,4 km/h (2 Bft) W-SW 247 0 min 1 UV-I 174 W/m 22,5 km/h (4 Bft)
08.05.2007 14:10 13,0 C 78 % 1007,8 hPa 0,0 mm 6,4 km/h (2 Bft) SW 225 0 min 1 UV-I 214 W/m 20,9 km/h (4 Bft)
08.05.2007 14:20 12,7 C 79 % 1007,8 hPa 0,3 mm 4,8 km/h (1 Bft) W-SW 247 0 min 1 UV-I 186 W/m 27,4 km/h (4 Bft)
08.05.2007 14:30 12,4 C 78 % 1007,8 hPa 0,0 mm 8,0 km/h (2 Bft) W-SW 247 0 min 1 UV-I 193 W/m 24,1 km/h (4 Bft)
08.05.2007 14:40 12,4 C 76 % 1007,7 hPa 0,0 mm 4,8 km/h (1 Bft) SW 225 0 min 2 UV-I 308 W/m 25,7 km/h (4 Bft)
08.05.2007 14:50 13,1 C 69 % 1007,6 hPa 0,0 mm 9,7 km/h (2 Bft) W-SW 247 0 min 2 UV-I 299 W/m 27,4 km/h (4 Bft)
08.05.2007 15:00 13,6 C 66 % 1007,7 hPa 0,0 mm 8,0 km/h (2 Bft) SW 225 0 min 2 UV-I 366 W/m 24,1 km/h (4 Bft)
08.05.2007 15:10 13,9 C 65 % 1007,7 hPa 0,0 mm 9,7 km/h (2 Bft) SW 225 0 min 2 UV-I 355 W/m 24,1 km/h (4 Bft)
08.05.2007 15:20 14,2 C 63 % 1007,6 hPa 0,0 mm 9,7 km/h (2 Bft) W-SW 247 10 min 3 UV-I 469 W/m 25,7 km/h (4 Bft)
08.05.2007 15:30 14,3 C 63 % 1007,5 hPa 0,0 mm 8,0 km/h (2 Bft) SW 225 10 min 2 UV-I 464 W/m 22,5 km/h (4 Bft)
08.05.2007 15:40 14,3 C 64 % 1007,5 hPa 0,0 mm 9,7 km/h (2 Bft) SW 225 0 min 2 UV-I 390 W/m 24,1 km/h (4 Bft)
08.05.2007 15:50 13,9 C 65 % 1007,7 hPa 0,0 mm 12,9 km/h (3 Bft) SW 225 0 min 1 UV-I 265 W/m 32,2 km/h (5 Bft)
08.05.2007 16:00 12,6 C 77 % 1008,0 hPa 0,5 mm 8,0 km/h (2 Bft) W-SW 247 0 min 1 UV-I 113 W/m 29,0 km/h (5 Bft)
08.05.2007 16:10 11,4 C 79 % 1007,8 hPa 0,0 mm 4,8 km/h (1 Bft) W-SW 247 0 min 2 UV-I 348 W/m 16,1 km/h (3 Bft)
08.05.2007 16:20 12,1 C 76 % 1007,7 hPa 0,0 mm 4,8 km/h (1 Bft) W-SW 247 10 min 2 UV-I 401 W/m 16,1 km/h (3 Bft)
08.05.2007 16:30 13,1 C 69 % 1007,5 hPa 0,0 mm 8,0 km/h (2 Bft) SW 225 10 min 2 UV-I 348 W/m 29,0 km/h (5 Bft)
08.05.2007 16:40 13,4 C 68 % 1007,5 hPa 0,0 mm 8,0 km/h (2 Bft) W-SW 247 0 min 1 UV-I 260 W/m 20,9 km/h (4 Bft)
08.05.2007 16:50 12,9 C 70 % 1007,5 hPa 0,0 mm 9,7 km/h (2 Bft) W-SW 247 10 min 2 UV-I 364 W/m 25,7 km/h (4 Bft)
08.05.2007 17:00 13,3 C 68 % 1007,4 hPa 0,0 mm 8,0 km/h (2 Bft) W-SW 247 10 min 2 UV-I 374 W/m 22,5 km/h (4 Bft)
08.05.2007 17:10 13,5 C 66 % 1007,3 hPa 0,0 mm 8,0 km/h (2 Bft) W-SW 247 0 min 2 UV-I 288 W/m 22,5 km/h (4 Bft)
08.05.2007 17:20 13,6 C 66 % 1007,3 hPa 0,0 mm 4,8 km/h (1 Bft) SW 225 0 min 1 UV-I 267 W/m 17,7 km/h (3 Bft)
08.05.2007 17:30 13,6 C 67 % 1007,2 hPa 0,0 mm 4,8 km/h (1 Bft) W-SW 247 0 min 1 UV-I 221 W/m 12,9 km/h (3 Bft)
08.05.2007 17:40 13,4 C 67 % 1007,0 hPa 0,0 mm 6,4 km/h (2 Bft) SW 225 0 min 0 UV-I 107 W/m 20,9 km/h (4 Bft)
08.05.2007 17:50 13,2 C 70 % 1006,9 hPa 0,0 mm 4,8 km/h (1 Bft) W-SW 247 0 min 0 UV-I 58 W/m 19,3 km/h (3 Bft)
08.05.2007 18:00 12,9 C 77 % 1007,1 hPa 0,5 mm 4,8 km/h (1 Bft) W-SW 247 0 min 0 UV-I 39 W/m 12,9 km/h (3 Bft)
08.05.2007 18:10 12,2 C 82 % 1007,2 hPa 0,5 mm 3,2 km/h (1 Bft) SW 225 0 min 0 UV-I 30 W/m 14,5 km/h (3 Bft)
08.05.2007 18:20 11,6 C 85 % 1007,2 hPa 0,3 mm 1,6 km/h (1 Bft) W-SW 247 0 min 0 UV-I 120 W/m 9,7 km/h (2 Bft)
08.05.2007 18:30 11,5 C 87 % 1007,2 hPa 0,0 mm 1,6 km/h (1 Bft) W-SW 247 0 min 1 UV-I 181 W/m 9,7 km/h (2 Bft)
08.05.2007 18:40 11,7 C 87 % 1006,9 hPa 0,0 mm 1,6 km/h (1 Bft) W-SW 247 0 min 0 UV-I 132 W/m 6,4 km/h (2 Bft)
08.05.2007 18:50 11,8 C 85 % 1006,8 hPa 0,0 mm 3,2 km/h (1 Bft) SW 225 0 min 0 UV-I 137 W/m 9,7 km/h (2 Bft)
08.05.2007 19:00 11,9 C 86 % 1006,8 hPa 0,0 mm 1,6 km/h (1 Bft) SW 225 10 min 0 UV-I 171 W/m 4,8 km/h (1 Bft)
08.05.2007 19:10 12,1 C 85 % 1006,6 hPa 0,0 mm 1,6 km/h (1 Bft) SW 225 0 min 0 UV-I 83 W/m 8,0 km/h (2 Bft)
08.05.2007 19:20 12,0 C 84 % 1006,5 hPa 0,0 mm 1,6 km/h (1 Bft) W-SW 247 0 min 0 UV-I 58 W/m 8,0 km/h (2 Bft)
08.05.2007 19:30 12,0 C 84 % 1006,3 hPa 0,0 mm 1,6 km/h (1 Bft) SW 225 0 min 0 UV-I 32 W/m 6,4 km/h (2 Bft)
08.05.2007 19:40 12,1 C 84 % 1006,3 hPa 0,0 mm 1,6 km/h (1 Bft) W 270 0 min 0 UV-I 32 W/m 4,8 km/h (1 Bft)
08.05.2007 19:50 12,1 C 84 % 1006,5 hPa 0,3 mm 1,6 km/h (1 Bft) W-SW 247 0 min 0 UV-I 12 W/m 6,4 km/h (2 Bft)
08.05.2007 20:00 11,9 C 86 % 1006,3 hPa 1,8 mm 3,2 km/h (1 Bft) SW 225 0 min 0 UV-I 56 W/m 11,3 km/h (2 Bft)
08.05.2007 20:10 11,7 C 86 % 1006,4 hPa 0,0 mm 4,8 km/h (1 Bft) W-SW 247 0 min 0 UV-I 23 W/m 9,7 km/h (2 Bft)
08.05.2007 20:20 11,6 C 86 % 1006,4 hPa 0,0 mm 3,2 km/h (1 Bft) W-SW 247 0 min 0 UV-I 16 W/m 11,3 km/h (2 Bft)
08.05.2007 20:30 11,4 C 86 % 1006,7 hPa 0,0 mm 3,2 km/h (1 Bft) W-SW 247 0 min 0 UV-I 0 W/m 9,7 km/h (2 Bft)
08.05.2007 20:40 11,4 C 84 % 1006,4 hPa 0,8 mm 4,8 km/h (1 Bft) SW 225 0 min 0 UV-I 0 W/m 16,1 km/h (3 Bft)
08.05.2007 20:50 11,3 C 85 % 1006,5 hPa 0,3 mm 3,2 km/h (1 Bft) W-SW 247 0 min 0 UV-I 0 W/m 12,9 km/h (3 Bft)
08.05.2007 21:00 11,2 C 86 % 1006,5 hPa 0,3 mm 3,2 km/h (1 Bft) W-SW 247 0 min 0 UV-I 0 W/m 9,7 km/h (2 Bft)
08.05.2007 21:10 11,1 C 86 % 1006,3 hPa 0,0 mm 4,8 km/h (1 Bft) W-SW 247 0 min 0 UV-I 0 W/m 19,3 km/h (3 Bft)
08.05.2007 21:20 11,2 C 85 % 1006,5 hPa 0,3 mm 4,8 km/h (1 Bft) W-SW 247 0 min 0 UV-I 0 W/m 22,5 km/h (4 Bft)
08.05.2007 21:30 11,2 C 84 % 1006,8 hPa 0,0 mm 8,0 km/h (2 Bft) SW 225 0 min 0 UV-I 0 W/m 29,0 km/h (5 Bft)
08.05.2007 21:40 11,2 C 82 % 1007,3 hPa 0,0 mm 9,7 km/h (2 Bft) W-SW 247 0 min 0 UV-I 0 W/m 24,1 km/h (4 Bft)
08.05.2007 21:50 11,2 C 81 % 1007,4 hPa 0,0 mm 6,4 km/h (2 Bft) W-SW 247 0 min 0 UV-I 0 W/m 19,3 km/h (3 Bft)
08.05.2007 22:00 11,0 C 82 % 1007,6 hPa 0,0 mm 4,8 km/h (1 Bft) W-SW 247 0 min 0 UV-I 0 W/m 16,1 km/h (3 Bft)
08.05.2007 22:10 10,8 C 82 % 1007,6 hPa 0,0 mm 4,8 km/h (1 Bft) SW 225 0 min 0 UV-I 0 W/m 16,1 km/h (3 Bft)
08.05.2007 22:20 10,6 C 81 % 1007,7 hPa 0,0 mm 4,8 km/h (1 Bft) W-SW 247 0 min 0 UV-I 0 W/m 16,1 km/h (3 Bft)
08.05.2007 22:30 10,3 C 82 % 1007,7 hPa 0,0 mm 4,8 km/h (1 Bft) W-SW 247 0 min 0 UV-I 0 W/m 14,5 km/h (3 Bft)
08.05.2007 22:40 10,2 C 82 % 1007,8 hPa 0,0 mm 4,8 km/h (1 Bft) SW 225 0 min 0 UV-I 0 W/m 16,1 km/h (3 Bft)
08.05.2007 22:50 10,1 C 83 % 1007,9 hPa 0,0 mm 3,2 km/h (1 Bft) W-SW 247 0 min 0 UV-I 0 W/m 9,7 km/h (2 Bft)
08.05.2007 23:00 10,1 C 82 % 1007,9 hPa 0,0 mm 4,8 km/h (1 Bft) W-SW 247 0 min 0 UV-I 0 W/m 11,3 km/h (2 Bft)
08.05.2007 23:10 10,2 C 82 % 1007,8 hPa 0,0 mm 3,2 km/h (1 Bft) W-SW 247 0 min 0 UV-I 0 W/m 8,0 km/h (2 Bft)
08.05.2007 23:20 10,2 C 82 % 1007,8 hPa 0,0 mm 4,8 km/h (1 Bft) W-SW 247 0 min 0 UV-I 0 W/m 9,7 km/h (2 Bft)
08.05.2007 23:30 10,2 C 82 % 1007,9 hPa 0,0 mm 4,8 km/h (1 Bft) W-SW 247 0 min 0 UV-I 0 W/m 11,3 km/h (2 Bft)
08.05.2007 23:40 10,3 C 81 % 1008,1 hPa 0,0 mm 4,8 km/h (1 Bft) SW 225 0 min 0 UV-I 0 W/m 11,3 km/h (2 Bft)
08.05.2007 23:50 10,4 C 81 % 1008,0 hPa 0,0 mm 4,8 km/h (1 Bft) SW 225 0 min 0 UV-I 0 W/m 14,5 km/h (3 Bft)
_ Min-Zeit 06:00 15:20 00:00 - 00:40 - - - - - 02:30
Minimum _ 8,9 C 63 % 1004,8 hPa - 1,6 km/h (1 Bft) - - - - - 4,8 km/h (1 Bft)
_ Max-Zeit 13:10 06:20 10:30 05:00 13:30 - - 07:30 12:00 13:00 13:30
Maximum _ 14,8 C 96 % 1009,0 hPa 5,6 mm 12,9 km/h
W-SW (3 Bft)
- - 10 min 4 UV-I 686 W/m 33,8 km/h
N (5 Bft)
Durchschnitt _ 11,8 C 82 % 1007,3 hPa #21,1 mm 4,7 km/h (1 Bft) W-SW - #3:50 h 2 UV-I 239 W/m 14,8 km/h (3 Bft)